Time;durP1;ratioP1;P1;durP2;ratioP2;P2;SDS_P1;SDS_P2;PMS_P1;PMS_P2;Temp;Humidity;BMP_temperature;BMP_pressure;BME280_temperature;BME280_humidity;BME280_pressure;Samples;Min_cycle;Max_cycle;Signal;HPM_P1;HPM_P2
2021/07/26 00:00:44;;;;;;;12.15;10.77;;;;;;;;;;5023825;28;20198;-71
2021/07/26 00:03:09;;;;;;;14.75;10.85;;;;;;;;;;5021939;28;20186;-71
2021/07/26 00:05:35;;;;;;;12.82;11.45;;;;;;;;;;5026555;28;20182;-71
2021/07/26 00:08:00;;;;;;;13.18;11.35;;;;;;;;;;5016202;28;20293;-71
2021/07/26 00:10:25;;;;;;;15.38;11.05;;;;;;;;;;5024944;28;20186;-71
2021/07/26 00:12:51;;;;;;;13.13;11.55;;;;;;;;;;5015923;28;20252;-71
2021/07/26 00:15:16;;;;;;;14.00;12.45;;;;;;;;;;5032122;28;20186;-71
2021/07/26 00:17:41;;;;;;;13.32;11.93;;;;;;;;;;5015137;28;20277;-71
2021/07/26 00:20:10;;;;;;;17.77;12.93;;;;;;;;;;5031891;28;20170;-71
2021/07/26 00:22:35;;;;;;;15.77;13.57;;;;;;;;;;5012938;28;20190;-71
2021/07/26 00:25:01;;;;;;;15.60;13.48;;;;;;;;;;5020942;28;20186;-70
2021/07/26 00:27:26;;;;;;;17.88;13.85;;;;;;;;;;5014607;28;20211;-71
2021/07/26 00:29:51;;;;;;;19.40;14.07;;;;;;;;;;5028004;28;20194;-71
2021/07/26 00:32:17;;;;;;;17.65;12.98;;;;;;;;;;5013308;28;20186;-71
2021/07/26 00:34:42;;;;;;;18.27;13.82;;;;;;;;;;5032933;28;20276;-70
2021/07/26 00:37:07;;;;;;;14.68;12.98;;;;;;;;;;5018434;28;20186;-70
2021/07/26 00:39:34;;;;;;;14.30;12.40;;;;;;;;;;5020461;28;20763;-71
2021/07/26 00:42:00;;;;;;;14.90;12.50;;;;;;;;;;5023598;28;20239;-71
2021/07/26 00:44:27;;;;;;;15.95;14.25;;;;;;;;;;5034334;28;20292;-71
2021/07/26 00:46:54;;;;;;;16.42;12.70;;;;;;;;;;5021470;28;20214;-70
2021/07/26 00:49:21;;;;;;;18.63;14.10;;;;;;;;;;5024157;28;20200;-70
2021/07/26 00:51:52;;;;;;;17.85;13.63;;;;;;;;;;5021591;28;20551;-70
2021/07/26 00:54:20;;;;;;;17.02;14.52;;;;;;;;;;5019634;28;20281;-70
2021/07/26 00:56:47;;;;;;;17.27;14.90;;;;;;;;;;5021718;28;20280;-70
2021/07/26 00:59:15;;;;;;;19.65;15.20;;;;;;;;;;5019744;28;20752;-70
2021/07/26 01:01:41;;;;;;;25.13;17.42;;;;;;;;;;5021379;28;20317;-70
2021/07/26 01:04:07;;;;;;;19.52;16.20;;;;;;;;;;5016283;28;20273;-71
2021/07/26 01:06:32;;;;;;;16.00;14.10;;;;;;;;;;5020060;28;20213;-70
2021/07/26 01:08:57;;;;;;;16.45;14.20;;;;;;;;;;5030449;28;20265;-71
2021/07/26 01:11:23;;;;;;;18.10;13.13;;;;;;;;;;5013056;28;20518;-70
2021/07/26 01:13:49;;;;;;;14.52;12.90;;;;;;;;;;5030905;28;20178;-70
2021/07/26 01:16:14;;;;;;;19.75;14.07;;;;;;;;;;5008230;28;20185;-70
2021/07/26 01:18:40;;;;;;;18.23;14.60;;;;;;;;;;5028633;28;20773;-70
2021/07/26 01:21:11;;;;;;;13.45;11.65;;;;;;;;;;5013852;28;20186;-70
2021/07/26 01:23:39;;;;;;;17.23;11.15;;;;;;;;;;5027268;28;20200;-70
2021/07/26 01:26:07;;;;;;;12.90;10.40;;;;;;;;;;5014361;28;20182;-70
2021/07/26 01:28:35;;;;;;;11.55;9.65;;;;;;;;;;5019757;28;20213;-70
2021/07/26 01:31:01;;;;;;;19.25;14.13;;;;;;;;;;5014496;28;20214;-70
2021/07/26 01:33:26;;;;;;;19.42;16.10;;;;;;;;;;5019475;28;20314;-70
2021/07/26 01:35:52;;;;;;;17.45;14.60;;;;;;;;;;5015377;28;20611;-70
2021/07/26 01:38:17;;;;;;;20.65;15.77;;;;;;;;;;5020828;28;20195;-70
2021/07/26 01:40:44;;;;;;;17.08;14.00;;;;;;;;;;5016056;28;20646;-70
2021/07/26 01:43:10;;;;;;;19.23;14.60;;;;;;;;;;5021506;28;20198;-70
2021/07/26 01:45:38;;;;;;;16.67;13.77;;;;;;;;;;5023444;28;20182;-70
2021/07/26 01:48:22;;;;;;;16.25;14.45;;;;;;;;;;5020007;28;20216;-70
2021/07/26 01:50:53;;;;;;;15.13;13.52;;;;;;;;;;5023243;28;20235;-70
2021/07/26 01:53:19;;;;;;;17.10;13.35;;;;;;;;;;5015419;28;20268;-70
2021/07/26 01:55:44;;;;;;;19.10;14.15;;;;;;;;;;5023344;28;20325;-70
2021/07/26 01:58:11;;;;;;;15.80;13.25;;;;;;;;;;5015845;28;20186;-70
2021/07/26 02:00:36;;;;;;;15.02;12.25;;;;;;;;;;5022784;28;20679;-70
2021/07/26 02:03:01;;;;;;;14.85;13.05;;;;;;;;;;5006343;28;20201;-70
2021/07/26 02:05:27;;;;;;;15.13;12.90;;;;;;;;;;5030985;28;20543;-70
2021/07/26 02:07:53;;;;;;;14.23;12.32;;;;;;;;;;5010321;28;20297;-70
2021/07/26 02:10:19;;;;;;;14.55;13.05;;;;;;;;;;5023401;28;20421;-70
2021/07/26 02:12:44;;;;;;;15.32;12.80;;;;;;;;;;5011409;28;20193;-70
2021/07/26 02:15:10;;;;;;;14.48;12.98;;;;;;;;;;5026384;28;20692;-70
2021/07/26 02:17:35;;;;;;;14.38;11.82;;;;;;;;;;5009397;28;20230;-70
2021/07/26 02:20:01;;;;;;;16.17;12.57;;;;;;;;;;5016926;28;20170;-70
2021/07/26 02:22:26;;;;;;;18.20;12.40;;;;;;;;;;5021076;28;20623;-70
2021/07/26 02:24:51;;;;;;;13.70;10.98;;;;;;;;;;5019424;28;20186;-70
2021/07/26 02:27:17;;;;;;;12.32;10.95;;;;;;;;;;5023803;28;20220;-70
2021/07/26 02:29:42;;;;;;;13.60;10.77;;;;;;;;;;5014200;28;20191;-70
2021/07/26 02:32:08;;;;;;;12.30;10.82;;;;;;;;;;5013795;28;20214;-70
2021/07/26 02:34:33;;;;;;;13.02;11.57;;;;;;;;;;5021680;28;20274;-70
2021/07/26 02:36:59;;;;;;;12.90;11.48;;;;;;;;;;5017059;28;20197;-70
2021/07/26 02:39:25;;;;;;;13.02;11.68;;;;;;;;;;5018487;28;20182;-70
2021/07/26 02:41:50;;;;;;;13.02;11.65;;;;;;;;;;5021190;28;20588;-70
2021/07/26 02:44:15;;;;;;;15.27;11.10;;;;;;;;;;5016360;28;20645;-70
2021/07/26 02:46:41;;;;;;;12.60;10.88;;;;;;;;;;5020329;28;20213;-70
2021/07/26 02:49:06;;;;;;;12.48;10.25;;;;;;;;;;5023341;28;20198;-70
2021/07/26 02:51:31;;;;;;;12.50;11.30;;;;;;;;;;5018912;28;20638;-70
2021/07/26 02:53:57;;;;;;;13.13;11.57;;;;;;;;;;5028244;28;20224;-70
2021/07/26 02:56:22;;;;;;;12.75;10.98;;;;;;;;;;5013157;28;20226;-70
2021/07/26 02:58:47;;;;;;;11.80;10.68;;;;;;;;;;5026796;28;20198;-70
2021/07/26 03:01:13;;;;;;;14.63;10.90;;;;;;;;;;5016916;28;20198;-70
2021/07/26 03:03:39;;;;;;;13.32;11.93;;;;;;;;;;5026045;28;20194;-70
2021/07/26 03:06:04;;;;;;;12.70;11.02;;;;;;;;;;5018985;28;20187;-70
2021/07/26 03:08:30;;;;;;;12.50;11.13;;;;;;;;;;5024814;28;20191;-70
2021/07/26 03:11:03;;;;;;;11.00;9.98;;;;;;;;;;5018573;28;20186;-70
2021/07/26 03:13:31;;;;;;;12.48;11.18;;;;;;;;;;5040115;28;20208;-70
2021/07/26 03:15:56;;;;;;;14.07;11.90;;;;;;;;;;5017547;28;20642;-70
2021/07/26 03:18:21;;;;;;;13.35;11.15;;;;;;;;;;5025748;28;20228;-70
2021/07/26 03:20:48;;;;;;;13.93;11.32;;;;;;;;;;5010209;28;20657;-70
2021/07/26 03:23:13;;;;;;;15.25;11.27;;;;;;;;;;5026984;28;20193;-70
2021/07/26 03:25:40;;;;;;;13.68;11.63;;;;;;;;;;5015828;28;20634;-70
2021/07/26 03:28:06;;;;;;;15.60;12.40;;;;;;;;;;5020028;28;20225;-70
2021/07/26 03:30:32;;;;;;;16.00;13.80;;;;;;;;;;5017589;28;20627;-70
2021/07/26 03:32:57;;;;;;;17.02;14.32;;;;;;;;;;5015046;28;20183;-70
2021/07/26 03:35:24;;;;;;;16.50;13.45;;;;;;;;;;5021950;28;20189;-70
2021/07/26 03:37:51;;;;;;;16.20;14.02;;;;;;;;;;5052876;28;20210;-70
2021/07/26 03:40:17;;;;;;;15.77;13.88;;;;;;;;;;5017021;28;20267;-70
2021/07/26 03:42:43;;;;;;;15.02;13.10;;;;;;;;;;5022057;28;20217;-70
2021/07/26 03:45:12;;;;;;;15.95;13.07;;;;;;;;;;5025115;28;20187;-70
2021/07/26 03:47:39;;;;;;;17.33;12.85;;;;;;;;;;5020032;28;20242;-70
2021/07/26 03:50:05;;;;;;;15.80;13.02;;;;;;;;;;5024491;28;20194;-70
2021/07/26 03:52:41;;;;;;;14.63;13.00;;;;;;;;;;5015949;28;20215;-70
2021/07/26 03:55:07;;;;;;;16.90;13.75;;;;;;;;;;5022266;28;20186;-70
2021/07/26 03:57:32;;;;;;;15.73;13.32;;;;;;;;;;5022451;28;20183;-70
2021/07/26 03:59:58;;;;;;;17.63;13.43;;;;;;;;;;5016284;28;20206;-70
2021/07/26 04:02:23;;;;;;;17.35;13.40;;;;;;;;;;5023195;28;20186;-70
2021/07/26 04:04:48;;;;;;;19.25;13.63;;;;;;;;;;5018152;28;20194;-70
2021/07/26 04:07:21;;;;;;;17.98;14.02;;;;;;;;;;5027262;28;20209;-70
2021/07/26 04:09:48;;;;;;;18.15;14.38;;;;;;;;;;5015410;28;20220;-70
2021/07/26 04:12:19;;;;;;;20.98;13.85;;;;;;;;;;5027181;28;20179;-70
2021/07/26 04:14:45;;;;;;;19.45;13.88;;;;;;;;;;5016307;28;20650;-70
2021/07/26 04:17:10;;;;;;;18.30;14.07;;;;;;;;;;5029765;28;20170;-70
2021/07/26 04:19:35;;;;;;;17.92;15.00;;;;;;;;;;5014954;28;20198;-70
2021/07/26 04:22:01;;;;;;;16.48;13.68;;;;;;;;;;5026783;28;20182;-70
2021/07/26 04:24:26;;;;;;;20.42;14.88;;;;;;;;;;5014845;28;20189;-70
2021/07/26 04:26:54;;;;;;;23.42;14.93;;;;;;;;;;5024425;28;20279;-70
2021/07/26 04:29:20;;;;;;;19.40;14.80;;;;;;;;;;5015166;28;20637;-70
2021/07/26 04:31:47;;;;;;;17.80;13.07;;;;;;;;;;5028554;28;20189;-70
2021/07/26 04:34:12;;;;;;;19.95;14.15;;;;;;;;;;5016291;28;20586;-70
2021/07/26 04:36:37;;;;;;;16.42;13.80;;;;;;;;;;5020703;28;20213;-70
2021/07/26 04:39:03;;;;;;;19.25;13.43;;;;;;;;;;5022637;28;20201;-70
2021/07/26 04:41:28;;;;;;;16.13;13.07;;;;;;;;;;5022575;28;20575;-70
2021/07/26 04:43:53;;;;;;;18.15;13.88;;;;;;;;;;5023550;28;20653;-70
2021/07/26 04:46:19;;;;;;;17.30;13.18;;;;;;;;;;5020469;28;20700;-70
2021/07/26 04:48:44;;;;;;;16.30;14.55;;;;;;;;;;5024108;28;20189;-70
2021/07/26 04:51:09;;;;;;;15.68;12.95;;;;;;;;;;5019984;28;20193;-70
2021/07/26 04:53:35;;;;;;;22.02;13.55;;;;;;;;;;5023372;28;20200;-70
2021/07/26 04:56:00;;;;;;;18.52;13.32;;;;;;;;;;5020805;28;25778;-70
2021/07/26 04:58:26;;;;;;;17.45;11.60;;;;;;;;;;5018158;28;20244;-70
2021/07/26 05:00:51;;;;;;;16.70;12.93;;;;;;;;;;5029240;28;20560;-70
2021/07/26 05:03:17;;;;;;;16.75;13.43;;;;;;;;;;5012129;28;20229;-70
2021/07/26 05:05:42;;;;;;;22.50;13.98;;;;;;;;;;5024506;28;20206;-70
2021/07/26 05:08:07;;;;;;;15.98;12.90;;;;;;;;;;5014455;28;20217;-70
2021/07/26 05:10:33;;;;;;;18.15;13.40;;;;;;;;;;5024091;28;20182;-70
2021/07/26 05:12:58;;;;;;;17.30;13.30;;;;;;;;;;5016304;28;20190;-71
2021/07/26 05:15:24;;;;;;;17.02;13.45;;;;;;;;;;5031005;28;20189;-70
2021/07/26 05:17:49;;;;;;;17.33;13.35;;;;;;;;;;5013965;28;20587;-70
2021/07/26 05:20:15;;;;;;;19.23;13.70;;;;;;;;;;5030787;28;20178;-70
2021/07/26 05:22:40;;;;;;;19.17;13.45;;;;;;;;;;5015000;28;20190;-70
2021/07/26 05:25:07;;;;;;;18.83;13.90;;;;;;;;;;5028040;28;20180;-69
2021/07/26 05:27:32;;;;;;;19.50;12.32;;;;;;;;;;5012817;28;20632;-69
2021/07/26 05:29:57;;;;;;;19.17;12.35;;;;;;;;;;5031220;28;20266;-69
2021/07/26 05:32:23;;;;;;;17.33;12.98;;;;;;;;;;5016034;28;20193;-69
2021/07/26 05:34:49;;;;;;;15.90;13.45;;;;;;;;;;5025067;28;20182;-69
2021/07/26 05:37:16;;;;;;;20.50;12.68;;;;;;;;;;5017650;28;20187;-69
2021/07/26 05:39:41;;;;;;;14.50;11.68;;;;;;;;;;5017237;28;20175;-69
2021/07/26 05:42:10;;;;;;;20.17;13.90;;;;;;;;;;5036643;28;20196;-68
2021/07/26 05:44:38;;;;;;;19.20;13.20;;;;;;;;;;5019416;28;20185;-69
2021/07/26 05:47:03;;;;;;;17.88;13.98;;;;;;;;;;5019680;28;20206;-70
2021/07/26 05:49:29;;;;;;;15.82;12.38;;;;;;;;;;5019606;28;20186;-69
2021/07/26 05:51:54;;;;;;;19.08;11.93;;;;;;;;;;5035507;28;20185;-68
2021/07/26 05:54:19;;;;;;;18.33;12.30;;;;;;;;;;5020456;28;20537;-69
2021/07/26 05:56:47;;;;;;;16.08;11.85;;;;;;;;;;5023225;28;20226;-69
2021/07/26 05:59:12;;;;;;;15.40;11.80;;;;;;;;;;5015955;28;20581;-69
2021/07/26 06:01:47;;;;;;;15.30;11.13;;;;;;;;;;5021098;28;20229;-69
2021/07/26 06:04:20;;;;;;;13.98;11.73;;;;;;;;;;5018321;28;20182;-69
2021/07/26 06:06:48;;;;;;;17.30;11.98;;;;;;;;;;5025690;28;20245;-68
2021/07/26 06:09:14;;;;;;;12.00;9.48;;;;;;;;;;5026379;28;20190;-67
2021/07/26 06:11:41;;;;;;;16.02;10.65;;;;;;;;;;5021848;28;20186;-68
2021/07/26 06:14:07;;;;;;;15.07;10.38;;;;;;;;;;5026425;28;20186;-68
2021/07/26 06:16:33;;;;;;;13.35;8.70;;;;;;;;;;5017789;28;20594;-69
2021/07/26 06:19:00;;;;;;;14.65;9.57;;;;;;;;;;5023065;28;20255;-68
2021/07/26 06:21:26;;;;;;;12.05;8.48;;;;;;;;;;5019240;28;20189;-68
2021/07/26 06:23:51;;;;;;;14.82;10.25;;;;;;;;;;5015975;28;20193;-68
2021/07/26 06:26:16;;;;;;;14.30;10.20;;;;;;;;;;5013985;28;20191;-67
2021/07/26 06:28:42;;;;;;;13.27;9.80;;;;;;;;;;5019927;28;20681;-68
2021/07/26 06:31:07;;;;;;;13.73;9.68;;;;;;;;;;5020846;28;20218;-68
2021/07/26 06:33:33;;;;;;;13.13;9.57;;;;;;;;;;5024981;28;20193;-69
2021/07/26 06:36:02;;;;;;;11.48;8.73;;;;;;;;;;5024217;28;20205;-70
2021/07/26 06:38:27;;;;;;;13.55;10.45;;;;;;;;;;5023181;28;20175;-68
2021/07/26 06:40:53;;;;;;;12.40;9.93;;;;;;;;;;5026141;28;20526;-74
2021/07/26 06:43:18;;;;;;;16.17;10.18;;;;;;;;;;5015900;28;20598;-68
2021/07/26 06:45:43;;;;;;;16.33;10.35;;;;;;;;;;5026893;28;20276;-67
2021/07/26 06:48:09;;;;;;;16.38;11.30;;;;;;;;;;5018399;28;20214;-68
2021/07/26 06:50:36;;;;;;;12.13;9.68;;;;;;;;;;5030824;28;20244;-67
2021/07/26 06:53:02;;;;;;;10.85;9.70;;;;;;;;;;5017062;28;20273;-67
2021/07/26 06:55:27;;;;;;;15.70;10.55;;;;;;;;;;5028919;28;20353;-67
2021/07/26 06:57:52;;;;;;;10.80;9.02;;;;;;;;;;5019937;28;20185;-67
2021/07/26 07:00:18;;;;;;;15.30;10.55;;;;;;;;;;5028306;28;20285;-67
2021/07/26 07:02:43;;;;;;;16.58;10.32;;;;;;;;;;5016919;28;20193;-68
2021/07/26 07:05:09;;;;;;;14.82;9.88;;;;;;;;;;5029345;28;20232;-67
2021/07/26 07:07:34;;;;;;;11.52;9.35;;;;;;;;;;5014964;28;20289;-67
2021/07/26 07:09:59;;;;;;;15.63;9.27;;;;;;;;;;5031613;28;20169;-69
2021/07/26 07:12:25;;;;;;;13.18;9.40;;;;;;;;;;5020367;28;20193;-68
2021/07/26 07:14:50;;;;;;;10.30;8.40;;;;;;;;;;5014581;28;20187;-67
2021/07/26 07:17:15;;;;;;;11.40;8.98;;;;;;;;;;5020679;28;20627;-72
2021/07/26 07:19:43;;;;;;;12.73;9.25;;;;;;;;;;5025203;28;20208;-67
2021/07/26 07:22:09;;;;;;;10.10;8.57;;;;;;;;;;5023120;28;20194;-67
2021/07/26 07:24:34;;;;;;;12.20;9.40;;;;;;;;;;5028716;28;20660;-68
2021/07/26 07:27:00;;;;;;;10.40;8.50;;;;;;;;;;5018571;28;20206;-69
2021/07/26 07:29:25;;;;;;;12.18;8.30;;;;;;;;;;5023947;28;20190;-68
2021/07/26 07:31:50;;;;;;;12.50;8.38;;;;;;;;;;5022761;28;20193;-70
2021/07/26 07:34:16;;;;;;;12.68;8.48;;;;;;;;;;5017729;28;20201;-72
2021/07/26 07:36:42;;;;;;;12.35;8.45;;;;;;;;;;5030645;28;20190;-72
2021/07/26 07:39:08;;;;;;;9.02;7.38;;;;;;;;;;5010450;28;20202;-68
2021/07/26 07:41:34;;;;;;;12.20;7.90;;;;;;;;;;5027913;28;20189;-71
2021/07/26 07:44:00;;;;;;;9.45;7.32;;;;;;;;;;5016036;28;20558;-73
2021/07/26 07:46:25;;;;;;;11.65;6.80;;;;;;;;;;5015759;28;20251;-75
2021/07/26 07:48:51;;;;;;;9.25;6.50;;;;;;;;;;5032948;28;20190;-69
2021/07/26 07:51:18;;;;;;;9.57;6.10;;;;;;;;;;5017905;28;20198;-74
2021/07/26 07:53:43;;;;;;;8.30;5.82;;;;;;;;;;5022410;28;20174;-71
2021/07/26 07:56:09;;;;;;;8.95;5.85;;;;;;;;;;5017444;28;20218;-72
2021/07/26 07:58:35;;;;;;;7.30;4.95;;;;;;;;;;5022615;28;20170;-72
2021/07/26 08:01:00;;;;;;;10.02;5.20;;;;;;;;;;5018378;28;20234;-72
2021/07/26 08:03:27;;;;;;;6.00;5.35;;;;;;;;;;5026727;28;20218;-68
2021/07/26 08:05:52;;;;;;;7.63;5.10;;;;;;;;;;5019272;28;20197;-73
2021/07/26 08:08:19;;;;;;;7.95;5.68;;;;;;;;;;5024490;28;20213;-68
2021/07/26 08:10:44;;;;;;;10.13;5.65;;;;;;;;;;5019345;28;20190;-70
2021/07/26 08:13:10;;;;;;;5.57;4.60;;;;;;;;;;5021821;28;20178;-70
2021/07/26 08:15:35;;;;;;;8.23;5.72;;;;;;;;;;5029697;28;20243;-73
2021/07/26 08:18:02;;;;;;;5.65;4.82;;;;;;;;;;5016594;28;20556;-70
2021/07/26 08:20:27;;;;;;;8.35;5.50;;;;;;;;;;5019835;28;20190;-70
2021/07/26 08:22:53;;;;;;;7.32;4.70;;;;;;;;;;5024428;28;20190;-72
2021/07/26 08:25:18;;;;;;;7.40;4.90;;;;;;;;;;5016335;28;20427;-70
2021/07/26 08:27:51;;;;;;;7.78;5.00;;;;;;;;;;5021973;28;20202;-72
2021/07/26 08:30:27;;;;;;;8.10;5.07;;;;;;;;;;5022459;28;20249;-73
2021/07/26 08:32:53;;;;;;;7.18;4.97;;;;;;;;;;5022543;28;20189;-69
2021/07/26 08:35:19;;;;;;;9.55;5.18;;;;;;;;;;5021811;28;20251;-75
2021/07/26 08:37:45;;;;;;;8.38;5.45;;;;;;;;;;5019669;28;20662;-71
2021/07/26 08:40:11;;;;;;;6.38;4.47;;;;;;;;;;5023308;28;20676;-74
2021/07/26 08:42:37;;;;;;;6.47;5.00;;;;;;;;;;5014061;28;20251;-70
2021/07/26 08:45:03;;;;;;;6.18;5.05;;;;;;;;;;5018206;28;20365;-70
2021/07/26 08:47:29;;;;;;;8.75;4.60;;;;;;;;;;5020697;28;20669;-70
2021/07/26 08:49:59;;;;;;;5.43;4.07;;;;;;;;;;5024709;28;20202;-75
2021/07/26 08:52:26;;;;;;;7.20;4.10;;;;;;;;;;5018131;28;20197;-73
2021/07/26 08:54:54;;;;;;;7.70;4.40;;;;;;;;;;5019932;28;20181;-74
2021/07/26 08:57:20;;;;;;;8.02;4.40;;;;;;;;;;5032571;28;20209;-68
2021/07/26 08:59:46;;;;;;;9.25;3.97;;;;;;;;;;5016095;28;20201;-69
2021/07/26 09:02:12;;;;;;;5.40;3.70;;;;;;;;;;5025608;28;20192;-69
2021/07/26 09:04:37;;;;;;;5.93;4.20;;;;;;;;;;5015791;28;20268;-67
2021/07/26 09:07:07;;;;;;;6.55;3.67;;;;;;;;;;5031860;28;20194;-67
2021/07/26 09:09:43;;;;;;;7.35;3.80;;;;;;;;;;5017625;28;20182;-68
2021/07/26 09:12:09;;;;;;;4.53;3.50;;;;;;;;;;5013666;28;20183;-73
2021/07/26 09:14:36;;;;;;;9.00;4.40;;;;;;;;;;5012936;28;20191;-71
2021/07/26 09:17:02;;;;;;;7.35;3.80;;;;;;;;;;5028090;28;20183;-74
2021/07/26 09:19:29;;;;;;;5.97;3.95;;;;;;;;;;5010470;28;20194;-68
2021/07/26 09:21:56;;;;;;;4.70;3.65;;;;;;;;;;5032908;28;20216;-69
2021/07/26 09:24:29;;;;;;;4.60;3.53;;;;;;;;;;5010582;28;20201;-71
2021/07/26 09:27:06;;;;;;;4.90;3.40;;;;;;;;;;5025279;28;20292;-69
2021/07/26 09:29:32;;;;;;;6.10;3.70;;;;;;;;;;5014925;28;20205;-72
2021/07/26 09:32:02;;;;;;;6.75;4.55;;;;;;;;;;5038608;28;20178;-71
2021/07/26 09:34:29;;;;;;;5.75;3.80;;;;;;;;;;5016482;28;20508;-72
2021/07/26 09:36:55;;;;;;;13.38;4.80;;;;;;;;;;5023544;28;20182;-72
2021/07/26 09:39:28;;;;;;;5.60;3.75;;;;;;;;;;5024172;28;20183;-71
2021/07/26 09:41:55;;;;;;;6.65;4.40;;;;;;;;;;5023880;28;20216;-69
2021/07/26 09:44:25;;;;;;;5.00;4.28;;;;;;;;;;5030318;28;20338;-72
2021/07/26 09:46:53;;;;;;;5.00;3.88;;;;;;;;;;5018146;28;20263;-71
2021/07/26 09:49:19;;;;;;;5.03;4.00;;;;;;;;;;5025479;28;20177;-72
2021/07/26 09:52:07;;;;;;;6.90;4.13;;;;;;;;;;5016822;28;20186;-70
2021/07/26 09:54:52;;;;;;;5.70;4.13;;;;;;;;;;5019721;28;20205;-70
2021/07/26 09:57:24;;;;;;;6.93;3.90;;;;;;;;;;5009178;28;20225;-68
2021/07/26 09:59:51;;;;;;;4.18;3.47;;;;;;;;;;5025251;28;20217;-73
2021/07/26 10:02:23;;;;;;;9.55;3.63;;;;;;;;;;5011555;28;20284;-73
2021/07/26 10:04:48;;;;;;;6.03;3.72;;;;;;;;;;5039182;28;20182;-69
2021/07/26 10:07:16;;;;;;;6.07;3.85;;;;;;;;;;5017361;28;20661;-72
2021/07/26 10:09:43;;;;;;;6.28;4.32;;;;;;;;;;5033178;28;20174;-69
2021/07/26 10:12:16;;;;;;;4.60;3.58;;;;;;;;;;5021048;28;20785;-70
2021/07/26 10:14:42;;;;;;;4.20;3.60;;;;;;;;;;5027664;28;20194;-69
2021/07/26 10:17:08;;;;;;;5.43;3.03;;;;;;;;;;5013459;28;20188;-72
2021/07/26 10:19:35;;;;;;;5.20;3.75;;;;;;;;;;5028671;28;20292;-72
2021/07/26 10:22:03;;;;;;;5.70;3.00;;;;;;;;;;5016138;28;20190;-69
2021/07/26 10:24:50;;;;;;;3.75;2.78;;;;;;;;;;5024200;28;20194;-69
2021/07/26 10:27:22;;;;;;;4.07;2.50;;;;;;;;;;5016461;28;20241;-70
2021/07/26 10:29:52;;;;;;;3.67;2.95;;;;;;;;;;5026888;28;20249;-70
2021/07/26 10:32:29;;;;;;;4.10;3.63;;;;;;;;;;5023096;28;20193;-69
2021/07/26 10:35:19;;;;;;;5.03;3.55;;;;;;;;;;5025787;28;20190;-72
2021/07/26 10:37:48;;;;;;;7.18;4.10;;;;;;;;;;5029630;28;20208;-69
2021/07/26 10:40:24;;;;;;;5.97;4.00;;;;;;;;;;5020362;28;20247;-69
2021/07/26 10:42:51;;;;;;;5.75;3.85;;;;;;;;;;5028744;28;20216;-72
2021/07/26 10:45:35;;;;;;;4.32;3.80;;;;;;;;;;5019442;28;20201;-72
2021/07/26 10:48:22;;;;;;;4.55;3.88;;;;;;;;;;5025089;28;20198;-74
2021/07/26 10:50:48;;;;;;;6.15;3.70;;;;;;;;;;5026338;28;20711;-73
2021/07/26 10:53:37;;;;;;;6.45;4.10;;;;;;;;;;5033592;28;20270;-69
2021/07/26 10:56:09;;;;;;;5.85;3.40;;;;;;;;;;5025492;28;20426;-69
2021/07/26 10:58:38;;;;;;;6.07;3.50;;;;;;;;;;5033679;28;20661;-69
2021/07/26 11:01:22;;;;;;;6.13;3.88;;;;;;;;;;5015308;28;20214;-73
2021/07/26 11:03:48;;;;;;;7.82;4.00;;;;;;;;;;5022196;28;20227;-70
2021/07/26 11:06:36;;;;;;;5.55;4.15;;;;;;;;;;5019712;28;20193;-70
2021/07/26 11:09:24;;;;;;;5.13;3.30;;;;;;;;;;5019274;28;20933;-70
2021/07/26 11:11:51;;;;;;;4.45;3.53;;;;;;;;;;5029942;28;20182;-73
2021/07/26 11:14:17;;;;;;;5.32;3.40;;;;;;;;;;5026012;28;20536;-71
2021/07/26 11:19:54;;;;;;;4.68;2.85;;;;;;;;;;5027695;28;20248;-69
2021/07/26 11:22:46;;;;;;;4.15;3.13;;;;;;;;;;5026514;28;20178;-72
2021/07/26 11:25:11;;;;;;;3.95;3.22;;;;;;;;;;5015078;28;20724;-73
2021/07/26 11:27:37;;;;;;;3.67;3.00;;;;;;;;;;5033326;28;20198;-70
2021/07/26 11:30:04;;;;;;;3.40;3.10;;;;;;;;;;5022374;28;21349;-70
2021/07/26 11:32:29;;;;;;;3.08;2.63;;;;;;;;;;5018196;28;20185;-74
2021/07/26 11:34:58;;;;;;;4.00;3.08;;;;;;;;;;5038277;28;20270;-74
2021/07/26 11:37:38;;;;;;;4.25;3.05;;;;;;;;;;5023026;28;20190;-71
2021/07/26 11:40:04;;;;;;;4.80;2.92;;;;;;;;;;5022959;28;20210;-73
2021/07/26 11:42:39;;;;;;;5.60;3.72;;;;;;;;;;5015792;28;20190;-71
2021/07/26 11:45:06;;;;;;;5.82;3.88;;;;;;;;;;5022146;28;20200;-73
2021/07/26 11:47:33;;;;;;;5.40;3.60;;;;;;;;;;5015429;28;20199;-74
2021/07/26 11:49:59;;;;;;;5.95;3.35;;;;;;;;;;5024268;28;20182;-71
2021/07/26 11:52:24;;;;;;;4.78;4.25;;;;;;;;;;5012834;28;20213;-70
2021/07/26 11:54:50;;;;;;;4.55;3.20;;;;;;;;;;5024636;28;20182;-71
2021/07/26 11:57:15;;;;;;;5.70;3.35;;;;;;;;;;5016629;28;20230;-73
2021/07/26 11:59:48;;;;;;;3.78;3.25;;;;;;;;;;5028822;28;20631;-70
2021/07/26 12:02:19;;;;;;;3.92;3.40;;;;;;;;;;5015640;28;20198;-70
2021/07/26 12:04:45;;;;;;;4.03;3.28;;;;;;;;;;5045520;28;20196;-74
2021/07/26 12:07:11;;;;;;;3.60;3.10;;;;;;;;;;5020073;28;20206;-72
2021/07/26 12:09:48;;;;;;;3.85;3.00;;;;;;;;;;5023086;28;20538;-73
2021/07/26 12:12:15;;;;;;;3.88;3.33;;;;;;;;;;5021561;28;20192;-73
2021/07/26 12:14:42;;;;;;;3.88;3.42;;;;;;;;;;5017135;28;20194;-71
2021/07/26 12:17:21;;;;;;;3.83;3.20;;;;;;;;;;5028044;28;20213;-75
2021/07/26 12:19:58;;;;;;;4.18;2.85;;;;;;;;;;5018549;28;20251;-74
2021/07/26 12:22:24;;;;;;;3.63;3.33;;;;;;;;;;5022610;28;20217;-74
2021/07/26 12:24:54;;;;;;;6.28;3.53;;;;;;;;;;5020330;28;20187;-73
2021/07/26 12:27:37;;;;;;;3.05;2.40;;;;;;;;;;5021483;28;20313;-72
2021/07/26 12:30:05;;;;;;;2.58;2.25;;;;;;;;;;5017152;28;20245;-70
2021/07/26 12:32:33;;;;;;;3.05;2.10;;;;;;;;;;5024408;28;20546;-70
2021/07/26 12:35:17;;;;;;;2.72;2.53;;;;;;;;;;5017589;28;20464;-71
2021/07/26 12:38:04;;;;;;;2.90;2.50;;;;;;;;;;5036932;28;20191;-70
2021/07/26 12:40:30;;;;;;;4.05;2.60;;;;;;;;;;5014852;28;20209;-75
2021/07/26 12:43:13;;;;;;;3.88;2.20;;;;;;;;;;5024010;28;20211;-75
2021/07/26 12:45:41;;;;;;;3.97;2.30;;;;;;;;;;5047772;28;20182;-70
2021/07/26 12:48:14;;;;;;;2.80;2.60;;;;;;;;;;5030498;28;20201;-75
2021/07/26 12:50:42;;;;;;;2.40;2.08;;;;;;;;;;5015242;28;20623;-75
2021/07/26 12:53:07;;;;;;;3.17;2.30;;;;;;;;;;5023594;28;20186;-72
2021/07/26 12:55:33;;;;;;;5.90;2.00;;;;;;;;;;5007911;28;20705;-70
2021/07/26 12:57:58;;;;;;;3.35;2.03;;;;;;;;;;5019352;28;20191;-71
2021/07/26 13:00:23;;;;;;;2.00;1.90;;;;;;;;;;5010058;28;20303;-71
2021/07/26 13:02:49;;;;;;;2.35;1.70;;;;;;;;;;5021371;28;20218;-72
2021/07/26 13:05:16;;;;;;;2.25;2.05;;;;;;;;;;5018924;28;20270;-76
2021/07/26 13:07:41;;;;;;;2.13;1.58;;;;;;;;;;5021704;28;20711;-71
2021/07/26 13:10:07;;;;;;;4.68;2.20;;;;;;;;;;5028173;28;20182;-73
2021/07/26 13:12:32;;;;;;;3.28;2.38;;;;;;;;;;5017022;28;20269;-70
2021/07/26 13:14:58;;;;;;;4.38;2.13;;;;;;;;;;5013313;28;20726;-72
2021/07/26 13:17:23;;;;;;;4.03;2.30;;;;;;;;;;5015362;28;20262;-71
2021/07/26 13:19:48;;;;;;;1.98;1.83;;;;;;;;;;5022897;28;20197;-70
2021/07/26 13:22:14;;;;;;;2.50;2.30;;;;;;;;;;5022157;28;20276;-73
2021/07/26 13:24:39;;;;;;;3.03;2.50;;;;;;;;;;5017573;28;20181;-75
2021/07/26 13:27:04;;;;;;;4.55;2.92;;;;;;;;;;5021087;28;20206;-70
2021/07/26 13:29:30;;;;;;;2.97;2.42;;;;;;;;;;5019088;28;20627;-72
2021/07/26 13:31:55;;;;;;;4.00;2.33;;;;;;;;;;5017547;28;20194;-71
2021/07/26 13:34:20;;;;;;;3.03;2.38;;;;;;;;;;5020687;28;20182;-75
2021/07/26 13:36:46;;;;;;;2.55;1.98;;;;;;;;;;5021477;28;20281;-71
2021/07/26 13:39:14;;;;;;;1.90;1.80;;;;;;;;;;5021064;28;20197;-71
2021/07/26 13:41:39;;;;;;;2.17;1.98;;;;;;;;;;5029181;28;20547;-76
2021/07/26 13:44:05;;;;;;;4.00;2.00;;;;;;;;;;5015515;28;20189;-69
2021/07/26 13:46:30;;;;;;;2.72;2.30;;;;;;;;;;5018511;28;20182;-74
2021/07/26 13:48:56;;;;;;;2.47;2.28;;;;;;;;;;5010345;28;20206;-71
2021/07/26 13:51:21;;;;;;;2.22;2.03;;;;;;;;;;5028037;28;20652;-74
2021/07/26 13:53:46;;;;;;;3.40;2.10;;;;;;;;;;5019580;28;20192;-76
2021/07/26 13:56:11;;;;;;;2.05;1.85;;;;;;;;;;5022096;28;20222;-69
2021/07/26 13:58:37;;;;;;;3.33;2.13;;;;;;;;;;5012690;28;20218;-70
2021/07/26 14:01:02;;;;;;;2.30;1.80;;;;;;;;;;5025378;28;20565;-72
2021/07/26 14:03:28;;;;;;;2.05;1.95;;;;;;;;;;5013827;28;20256;-74
2021/07/26 14:05:53;;;;;;;2.28;1.92;;;;;;;;;;5025853;28;20711;-72
2021/07/26 14:08:19;;;;;;;3.58;2.47;;;;;;;;;;5014369;28;20217;-70
2021/07/26 14:10:44;;;;;;;3.05;2.20;;;;;;;;;;5025175;28;20182;-75
2021/07/26 14:13:09;;;;;;;2.13;1.92;;;;;;;;;;5014096;28;20197;-74
2021/07/26 14:15:35;;;;;;;4.22;2.50;;;;;;;;;;5014047;28;20194;-74
2021/07/26 14:18:01;;;;;;;2.40;2.20;;;;;;;;;;5020261;28;20178;-71
2021/07/26 14:20:26;;;;;;;2.92;1.95;;;;;;;;;;5012329;28;20249;-72
2021/07/26 14:22:51;;;;;;;4.63;2.17;;;;;;;;;;5024183;28;20186;-75
2021/07/26 14:25:17;;;;;;;2.38;2.00;;;;;;;;;;5021410;28;20237;-72
2021/07/26 14:27:42;;;;;;;3.65;2.03;;;;;;;;;;5022217;28;20748;-72
2021/07/26 14:30:08;;;;;;;3.92;2.22;;;;;;;;;;5017453;28;20606;-72
2021/07/26 14:32:34;;;;;;;5.30;2.00;;;;;;;;;;5021528;28;20205;-71
2021/07/26 14:35:00;;;;;;;2.15;1.95;;;;;;;;;;5015170;28;20236;-73